Hauptseite
METAR-TAF:

METAR-TAF

Flughäfen :

Augsburg, Deutschland

Flughafen Augsburg

Breite: 48-26N, Länge: 010-56E, Höhe: 461 m

Beobachtung

Neuester Wetterbericht von vor 13 Minuten, um 11:50 UTC
Wind 3 kt aus West, variierte zwischen Südwest und Nordwest
Temperatur 18°C
Luftfeuchtigkeit 49%
Luftdruck 1024 hPa
Sichtweite 10 km oder mehr
keine Wolken unter 1500 m und keine Kumulonimbus oder Gewitterwolken

METAR: EDMA 211150Z 28003KT 230V310 CAVOK 18/07 Q1024

Zeit: 14:03 (12:03 UTC)

Prognose

Neuester Wetterbericht von vor 1 Stunde und 3 Minuten, um 11:00 UTC
Gültige Prognose vom 21 um 12 UTC bis 21 um 21 UTC
Wind 5 kt aus Nordwest
Sichtweite 10 km oder mehr
Leicht bewölkt in der Höhe von 4500 ft
Übergehend zu
vom 21 um 18 UTC bis 21 um 20 UTC
Wind 3 kt aus unterschiedlichen Richtungen

TAF: EDMA 211100Z 2112/2121 31005KT 9999 FEW045 BECMG 2118/2120 VRB03KT

Wetterbeobachtungen und Prognosen von mehr als 4000 Flughäfen (METAR und TAF Bericht).

Die verfügbaren Stationen werden durch gelbe und rote Markierungen auf der Karte dargestellt.

Führen Sie die Maus auf sie, um den Namen der Station zu sehen.

Darauf klicken, um die Beobachtung von Wetterbeobachtungen und Prognosen zu sehen.

Um die Karte zu ändern : klicken Sie auf den grünen Tasten mit einem schwarzen Kreuz Zum Vergrößern, auf den grünen Button mit einem Gedankenstrich zu verkleinern, oder auf die grünen Pfeile für benachbarte Karten.


METAR-TAF: